sensor_id;sensor_type;location;lat;lon;timestamp;P1;durP1;ratioP1;P2;durP2;ratioP2
68054;SDS011;54841;43.616;1.460;2022-10-17T07:22:17;8.20;;;2.53;;
68054;SDS011;54841;43.616;1.460;2022-10-17T07:24:42;9.80;;;2.78;;
68054;SDS011;54841;43.616;1.460;2022-10-17T07:27:08;10.15;;;3.78;;
68054;SDS011;54841;43.616;1.460;2022-10-17T07:29:33;8.85;;;3.13;;
68054;SDS011;54841;43.616;1.460;2022-10-17T07:31:59;14.80;;;2.83;;
68054;SDS011;54841;43.616;1.460;2022-10-17T07:34:24;9.43;;;3.55;;
68054;SDS011;54841;43.616;1.460;2022-10-17T07:36:52;8.35;;;2.55;;
68054;SDS011;54841;43.616;1.460;2022-10-17T07:39:17;13.30;;;3.28;;
68054;SDS011;54841;43.616;1.460;2022-10-17T07:41:43;9.13;;;3.00;;
68054;SDS011;54841;43.616;1.460;2022-10-17T07:44:08;8.23;;;2.83;;
68054;SDS011;54841;43.616;1.460;2022-10-17T07:46:34;7.53;;;2.40;;
68054;SDS011;54841;43.616;1.460;2022-10-17T07:48:59;9.63;;;2.65;;
68054;SDS011;54841;43.616;1.460;2022-10-17T07:51:25;8.32;;;2.80;;
68054;SDS011;54841;43.616;1.460;2022-10-17T07:53:51;9.18;;;2.72;;
68054;SDS011;54841;43.616;1.460;2022-10-17T07:56:17;8.70;;;2.92;;
68054;SDS011;54841;43.616;1.460;2022-10-17T07:58:42;9.18;;;2.92;;
68054;SDS011;54841;43.616;1.460;2022-10-17T08:01:08;12.02;;;2.67;;
68054;SDS011;54841;43.616;1.460;2022-10-17T08:03:38;10.18;;;3.55;;
68054;SDS011;54841;43.616;1.460;2022-10-17T08:06:04;10.57;;;2.95;;
68054;SDS011;54841;43.616;1.460;2022-10-17T08:08:30;9.80;;;2.58;;
68054;SDS011;54841;43.616;1.460;2022-10-17T08:10:59;9.10;;;2.65;;
68054;SDS011;54841;43.616;1.460;2022-10-17T08:13:27;13.85;;;3.40;;
68054;SDS011;54841;43.616;1.460;2022-10-17T08:15:52;8.05;;;2.45;;
68054;SDS011;54841;43.616;1.460;2022-10-17T08:18:17;8.77;;;2.83;;
68054;SDS011;54841;43.616;1.460;2022-10-17T08:20:43;10.70;;;3.08;;
68054;SDS011;54841;43.616;1.460;2022-10-17T08:23:08;7.70;;;2.28;;
68054;SDS011;54841;43.616;1.460;2022-10-17T08:25:38;9.57;;;2.83;;
68054;SDS011;54841;43.616;1.460;2022-10-17T08:28:06;10.52;;;2.45;;
68054;SDS011;54841;43.616;1.460;2022-10-17T08:30:31;10.02;;;2.90;;
68054;SDS011;54841;43.616;1.460;2022-10-17T08:32:57;8.10;;;3.25;;
68054;SDS011;54841;43.616;1.460;2022-10-17T08:35:22;12.63;;;3.08;;
68054;SDS011;54841;43.616;1.460;2022-10-17T08:37:48;10.23;;;2.97;;
68054;SDS011;54841;43.616;1.460;2022-10-17T08:40:24;8.77;;;2.67;;
68054;SDS011;54841;43.616;1.460;2022-10-17T08:48:00;10.05;;;3.15;;
68054;SDS011;54841;43.616;1.460;2022-10-17T08:50:36;11.38;;;3.00;;
68054;SDS011;54841;43.616;1.460;2022-10-17T08:55:50;14.52;;;3.72;;
68054;SDS011;54841;43.616;1.460;2022-10-17T09:03:37;7.80;;;2.60;;
68054;SDS011;54841;43.616;1.460;2022-10-17T09:06:11;11.52;;;3.80;;
68054;SDS011;54841;43.616;1.460;2022-10-17T09:17:50;12.73;;;2.90;;
68054;SDS011;54841;43.616;1.460;2022-10-17T09:25:45;14.48;;;3.70;;
68054;SDS011;54841;43.616;1.460;2022-10-17T09:28:15;11.82;;;3.20;;
68054;SDS011;54841;43.616;1.460;2022-10-17T09:33:18;13.10;;;2.95;;
68054;SDS011;54841;43.616;1.460;2022-10-17T09:35:46;9.23;;;3.05;;
68054;SDS011;54841;43.616;1.460;2022-10-17T09:38:17;10.52;;;2.67;;
68054;SDS011;54841;43.616;1.460;2022-10-17T09:40:51;9.98;;;2.90;;
68054;SDS011;54841;43.616;1.460;2022-10-17T09:43:20;13.73;;;3.17;;
68054;SDS011;54841;43.616;1.460;2022-10-17T09:46:06;13.00;;;3.83;;
68054;SDS011;54841;43.616;1.460;2022-10-17T09:48:41;8.23;;;3.17;;
68054;SDS011;54841;43.616;1.460;2022-10-17T09:51:10;8.77;;;2.70;;
68054;SDS011;54841;43.616;1.460;2022-10-17T09:53:37;12.70;;;3.20;;
68054;SDS011;54841;43.616;1.460;2022-10-17T09:56:10;8.20;;;2.85;;
68054;SDS011;54841;43.616;1.460;2022-10-17T09:58:48;13.82;;;3.25;;
68054;SDS011;54841;43.616;1.460;2022-10-17T10:01:22;7.78;;;2.70;;
68054;SDS011;54841;43.616;1.460;2022-10-17T10:07:03;8.65;;;2.97;;
68054;SDS011;54841;43.616;1.460;2022-10-17T10:09:30;7.35;;;2.58;;
68054;SDS011;54841;43.616;1.460;2022-10-17T10:12:00;7.93;;;2.80;;
68054;SDS011;54841;43.616;1.460;2022-10-17T10:14:29;11.07;;;3.42;;
68054;SDS011;54841;43.616;1.460;2022-10-17T10:16:59;10.57;;;3.47;;
68054;SDS011;54841;43.616;1.460;2022-10-17T10:19:33;10.63;;;3.17;;
68054;SDS011;54841;43.616;1.460;2022-10-17T10:22:04;12.63;;;3.67;;
68054;SDS011;54841;43.616;1.460;2022-10-17T10:24:38;9.98;;;2.90;;
68054;SDS011;54841;43.616;1.460;2022-10-17T10:27:04;9.80;;;3.05;;
68054;SDS011;54841;43.616;1.460;2022-10-17T10:29:33;10.35;;;3.17;;
68054;SDS011;54841;43.616;1.460;2022-10-17T10:34:56;13.30;;;3.17;;
68054;SDS011;54841;43.616;1.460;2022-10-17T10:39:55;12.93;;;3.75;;
68054;SDS011;54841;43.616;1.460;2022-10-17T10:42:24;12.85;;;4.53;;
68054;SDS011;54841;43.616;1.460;2022-10-17T10:44:57;12.13;;;3.40;;
68054;SDS011;54841;43.616;1.460;2022-10-17T10:47:25;8.95;;;3.40;;
68054;SDS011;54841;43.616;1.460;2022-10-17T10:50:05;12.48;;;3.92;;
68054;SDS011;54841;43.616;1.460;2022-10-17T10:52:44;10.70;;;2.95;;
68054;SDS011;54841;43.616;1.460;2022-10-17T10:57:48;11.40;;;3.53;;
68054;SDS011;54841;43.616;1.460;2022-10-17T11:00:20;8.15;;;3.03;;
68054;SDS011;54841;43.616;1.460;2022-10-17T11:08:11;11.52;;;4.15;;
68054;SDS011;54841;43.616;1.460;2022-10-17T11:13:22;11.93;;;3.70;;
68054;SDS011;54841;43.616;1.460;2022-10-17T11:21:47;14.10;;;3.75;;
68054;SDS011;54841;43.616;1.460;2022-10-17T11:24:23;11.80;;;3.70;;
68054;SDS011;54841;43.616;1.460;2022-10-17T11:27:10;8.25;;;2.90;;
68054;SDS011;54841;43.616;1.460;2022-10-17T11:29:38;10.50;;;3.15;;
68054;SDS011;54841;43.616;1.460;2022-10-17T11:34:45;11.60;;;4.15;;
68054;SDS011;54841;43.616;1.460;2022-10-17T11:37:24;9.07;;;3.92;;
68054;SDS011;54841;43.616;1.460;2022-10-17T11:39:59;15.25;;;3.58;;
68054;SDS011;54841;43.616;1.460;2022-10-17T11:42:47;10.13;;;3.03;;
68054;SDS011;54841;43.616;1.460;2022-10-17T11:45:18;12.13;;;3.50;;
68054;SDS011;54841;43.616;1.460;2022-10-17T11:47:46;10.38;;;3.58;;
68054;SDS011;54841;43.616;1.460;2022-10-17T11:50:34;9.55;;;3.00;;
68054;SDS011;54841;43.616;1.460;2022-10-17T11:53:03;10.77;;;3.60;;
68054;SDS011;54841;43.616;1.460;2022-10-17T11:55:33;10.10;;;3.17;;
68054;SDS011;54841;43.616;1.460;2022-10-17T12:03:28;11.13;;;3.30;;
68054;SDS011;54841;43.616;1.460;2022-10-17T12:08:51;8.93;;;3.47;;
68054;SDS011;54841;43.616;1.460;2022-10-17T12:14:38;7.25;;;2.70;;
68054;SDS011;54841;43.616;1.460;2022-10-17T12:17:22;10.02;;;3.17;;
68054;SDS011;54841;43.616;1.460;2022-10-17T12:19:52;8.25;;;2.75;;
68054;SDS011;54841;43.616;1.460;2022-10-17T12:22:19;11.02;;;3.65;;
68054;SDS011;54841;43.616;1.460;2022-10-17T12:24:58;14.45;;;3.55;;
68054;SDS011;54841;43.616;1.460;2022-10-17T12:27:34;10.55;;;2.85;;
68054;SDS011;54841;43.616;1.460;2022-10-17T12:30:00;11.57;;;2.85;;
68054;SDS011;54841;43.616;1.460;2022-10-17T12:32:31;7.38;;;2.70;;
68054;SDS011;54841;43.616;1.460;2022-10-17T12:34:56;7.75;;;2.85;;
68054;SDS011;54841;43.616;1.460;2022-10-17T12:43:00;8.77;;;2.42;;
68054;SDS011;54841;43.616;1.460;2022-10-17T12:51:02;6.60;;;2.70;;
68054;SDS011;54841;43.616;1.460;2022-10-17T12:56:37;12.15;;;3.10;;
68054;SDS011;54841;43.616;1.460;2022-10-17T12:59:11;10.90;;;2.75;;
68054;SDS011;54841;43.616;1.460;2022-10-17T13:01:44;11.32;;;3.38;;
68054;SDS011;54841;43.616;1.460;2022-10-17T13:04:11;11.15;;;2.90;;
68054;SDS011;54841;43.616;1.460;2022-10-17T13:06:39;12.77;;;2.85;;
68054;SDS011;54841;43.616;1.460;2022-10-17T13:12:14;9.18;;;2.92;;
68054;SDS011;54841;43.616;1.460;2022-10-17T13:14:47;10.95;;;2.58;;
68054;SDS011;54841;43.616;1.460;2022-10-17T13:17:23;11.25;;;2.97;;
68054;SDS011;54841;43.616;1.460;2022-10-17T13:19:51;10.10;;;2.88;;
68054;SDS011;54841;43.616;1.460;2022-10-17T13:22:19;11.15;;;3.00;;
68054;SDS011;54841;43.616;1.460;2022-10-17T13:24:47;15.25;;;4.47;;
68054;SDS011;54841;43.616;1.460;2022-10-17T13:29:55;10.60;;;2.97;;
68054;SDS011;54841;43.616;1.460;2022-10-17T13:32:22;9.63;;;2.83;;
68054;SDS011;54841;43.616;1.460;2022-10-17T13:37:34;11.93;;;2.53;;
68054;SDS011;54841;43.616;1.460;2022-10-17T13:40:00;10.63;;;3.22;;
68054;SDS011;54841;43.616;1.460;2022-10-17T13:42:30;10.32;;;3.15;;
68054;SDS011;54841;43.616;1.460;2022-10-17T13:45:01;7.85;;;2.80;;
68054;SDS011;54841;43.616;1.460;2022-10-17T13:47:27;8.88;;;2.95;;
68054;SDS011;54841;43.616;1.460;2022-10-17T13:49:55;10.50;;;2.72;;
68054;SDS011;54841;43.616;1.460;2022-10-17T13:52:21;10.80;;;2.83;;
68054;SDS011;54841;43.616;1.460;2022-10-17T13:54:50;11.35;;;3.05;;
68054;SDS011;54841;43.616;1.460;2022-10-17T13:57:22;8.15;;;2.65;;
68054;SDS011;54841;43.616;1.460;2022-10-17T13:59:57;9.38;;;2.75;;
68054;SDS011;54841;43.616;1.460;2022-10-17T14:02:27;7.55;;;2.50;;
68054;SDS011;54841;43.616;1.460;2022-10-17T14:05:27;8.43;;;2.85;;
68054;SDS011;54841;43.616;1.460;2022-10-17T14:07:54;14.30;;;3.05;;
68054;SDS011;54841;43.616;1.460;2022-10-17T14:10:31;8.82;;;2.72;;
68054;SDS011;54841;43.616;1.460;2022-10-17T14:13:00;11.40;;;3.08;;
68054;SDS011;54841;43.616;1.460;2022-10-17T14:15:29;14.93;;;3.33;;
68054;SDS011;54841;43.616;1.460;2022-10-17T14:18:06;13.20;;;3.03;;
68054;SDS011;54841;43.616;1.460;2022-10-17T14:20:32;10.45;;;3.08;;
68054;SDS011;54841;43.616;1.460;2022-10-17T14:22:59;10.68;;;3.53;;
68054;SDS011;54841;43.616;1.460;2022-10-17T14:25:29;11.90;;;3.63;;
68054;SDS011;54841;43.616;1.460;2022-10-17T14:28:15;8.02;;;2.83;;
68054;SDS011;54841;43.616;1.460;2022-10-17T14:30:44;10.50;;;3.15;;
68054;SDS011;54841;43.616;1.460;2022-10-17T14:33:14;12.82;;;3.35;;
68054;SDS011;54841;43.616;1.460;2022-10-17T14:35:50;8.30;;;3.03;;
68054;SDS011;54841;43.616;1.460;2022-10-17T14:38:16;8.02;;;3.47;;
68054;SDS011;54841;43.616;1.460;2022-10-17T14:40:48;8.55;;;2.67;;
68054;SDS011;54841;43.616;1.460;2022-10-17T14:43:17;11.00;;;3.75;;
68054;SDS011;54841;43.616;1.460;2022-10-17T14:45:45;7.72;;;2.75;;
68054;SDS011;54841;43.616;1.460;2022-10-17T14:50:40;10.73;;;2.95;;
68054;SDS011;54841;43.616;1.460;2022-10-17T14:55:36;8.07;;;2.80;;
68054;SDS011;54841;43.616;1.460;2022-10-17T14:58:14;9.68;;;2.72;;
68054;SDS011;54841;43.616;1.460;2022-10-17T15:00:46;10.55;;;2.85;;
68054;SDS011;54841;43.616;1.460;2022-10-17T15:03:11;9.23;;;2.83;;
68054;SDS011;54841;43.616;1.460;2022-10-17T15:05:37;11.60;;;2.95;;
68054;SDS011;54841;43.616;1.460;2022-10-17T15:08:04;8.30;;;2.45;;
68054;SDS011;54841;43.616;1.460;2022-10-17T15:10:33;10.93;;;3.30;;
68054;SDS011;54841;43.616;1.460;2022-10-17T15:13:00;8.95;;;3.35;;
68054;SDS011;54841;43.616;1.460;2022-10-17T15:15:28;12.23;;;3.47;;
68054;SDS011;54841;43.616;1.460;2022-10-17T15:17:54;9.85;;;2.60;;
68054;SDS011;54841;43.616;1.460;2022-10-17T15:20:20;10.15;;;2.85;;
68054;SDS011;54841;43.616;1.460;2022-10-17T15:22:50;9.75;;;2.92;;
68054;SDS011;54841;43.616;1.460;2022-10-17T15:25:17;10.00;;;2.70;;
68054;SDS011;54841;43.616;1.460;2022-10-17T15:27:43;7.55;;;2.47;;
68054;SDS011;54841;43.616;1.460;2022-10-17T15:30:20;7.45;;;2.65;;
68054;SDS011;54841;43.616;1.460;2022-10-17T15:32:46;7.47;;;2.70;;
68054;SDS011;54841;43.616;1.460;2022-10-17T15:35:11;8.02;;;2.53;;
68054;SDS011;54841;43.616;1.460;2022-10-17T15:37:37;7.47;;;2.60;;
68054;SDS011;54841;43.616;1.460;2022-10-17T15:40:03;11.07;;;3.10;;
68054;SDS011;54841;43.616;1.460;2022-10-17T15:42:29;12.90;;;2.65;;
68054;SDS011;54841;43.616;1.460;2022-10-17T15:44:55;12.90;;;3.75;;
68054;SDS011;54841;43.616;1.460;2022-10-17T15:47:22;10.80;;;3.28;;
68054;SDS011;54841;43.616;1.460;2022-10-17T15:49:57;12.45;;;3.22;;
68054;SDS011;54841;43.616;1.460;2022-10-17T15:52:23;13.20;;;3.20;;
68054;SDS011;54841;43.616;1.460;2022-10-17T15:54:48;11.43;;;2.90;;
68054;SDS011;54841;43.616;1.460;2022-10-17T15:57:21;11.50;;;2.65;;
68054;SDS011;54841;43.616;1.460;2022-10-17T15:59:48;11.10;;;3.10;;
68054;SDS011;54841;43.616;1.460;2022-10-17T16:02:15;10.07;;;2.95;;
68054;SDS011;54841;43.616;1.460;2022-10-17T16:04:42;9.60;;;3.15;;
68054;SDS011;54841;43.616;1.460;2022-10-17T16:07:07;10.55;;;2.70;;
68054;SDS011;54841;43.616;1.460;2022-10-17T16:09:33;9.02;;;2.53;;
68054;SDS011;54841;43.616;1.460;2022-10-17T16:12:01;8.50;;;2.35;;
68054;SDS011;54841;43.616;1.460;2022-10-17T16:14:28;11.80;;;2.70;;
68054;SDS011;54841;43.616;1.460;2022-10-17T16:16:56;10.63;;;2.65;;
68054;SDS011;54841;43.616;1.460;2022-10-17T16:19:23;9.85;;;2.60;;
68054;SDS011;54841;43.616;1.460;2022-10-17T16:21:51;6.75;;;2.70;;
68054;SDS011;54841;43.616;1.460;2022-10-17T16:24:17;8.52;;;2.83;;
68054;SDS011;54841;43.616;1.460;2022-10-17T16:26:42;12.93;;;3.95;;
68054;SDS011;54841;43.616;1.460;2022-10-17T16:29:08;7.30;;;2.80;;
68054;SDS011;54841;43.616;1.460;2022-10-17T16:31:41;7.30;;;3.00;;
68054;SDS011;54841;43.616;1.460;2022-10-17T16:34:09;11.45;;;2.50;;
68054;SDS011;54841;43.616;1.460;2022-10-17T16:36:37;8.73;;;2.28;;
68054;SDS011;54841;43.616;1.460;2022-10-17T16:39:03;12.88;;;2.58;;
68054;SDS011;54841;43.616;1.460;2022-10-17T16:41:33;5.15;;;2.42;;
68054;SDS011;54841;43.616;1.460;2022-10-17T16:46:27;10.20;;;2.80;;
68054;SDS011;54841;43.616;1.460;2022-10-17T16:48:53;7.88;;;2.88;;
68054;SDS011;54841;43.616;1.460;2022-10-17T16:51:18;10.82;;;2.78;;
68054;SDS011;54841;43.616;1.460;2022-10-17T16:53:45;10.00;;;3.10;;
68054;SDS011;54841;43.616;1.460;2022-10-17T16:56:15;8.05;;;2.50;;
68054;SDS011;54841;43.616;1.460;2022-10-17T16:58:42;10.18;;;2.92;;
68054;SDS011;54841;43.616;1.460;2022-10-17T17:01:09;9.10;;;2.40;;
68054;SDS011;54841;43.616;1.460;2022-10-17T17:03:37;8.93;;;2.85;;
68054;SDS011;54841;43.616;1.460;2022-10-17T17:06:04;8.18;;;2.53;;
68054;SDS011;54841;43.616;1.460;2022-10-17T17:08:30;10.77;;;2.83;;
68054;SDS011;54841;43.616;1.460;2022-10-17T17:11:01;9.25;;;3.20;;
68054;SDS011;54841;43.616;1.460;2022-10-17T17:13:27;11.70;;;3.00;;
68054;SDS011;54841;43.616;1.460;2022-10-17T17:16:00;15.45;;;2.78;;
68054;SDS011;54841;43.616;1.460;2022-10-17T17:18:43;8.10;;;2.58;;
68054;SDS011;54841;43.616;1.460;2022-10-17T17:21:10;9.40;;;2.65;;
68054;SDS011;54841;43.616;1.460;2022-10-17T17:23:37;8.32;;;2.70;;
68054;SDS011;54841;43.616;1.460;2022-10-17T17:26:05;9.20;;;2.50;;
68054;SDS011;54841;43.616;1.460;2022-10-17T17:28:34;11.07;;;2.90;;
68054;SDS011;54841;43.616;1.460;2022-10-17T17:31:00;7.10;;;2.20;;
68054;SDS011;54841;43.616;1.460;2022-10-17T17:33:26;8.50;;;2.70;;
68054;SDS011;54841;43.616;1.460;2022-10-17T17:35:54;14.25;;;3.10;;
68054;SDS011;54841;43.616;1.460;2022-10-17T17:38:21;13.30;;;3.08;;
68054;SDS011;54841;43.616;1.460;2022-10-17T17:40:47;8.32;;;2.40;;
68054;SDS011;54841;43.616;1.460;2022-10-17T17:43:12;8.43;;;2.72;;
68054;SDS011;54841;43.616;1.460;2022-10-17T17:45:38;8.82;;;3.50;;
68054;SDS011;54841;43.616;1.460;2022-10-17T17:48:03;11.30;;;2.60;;
68054;SDS011;54841;43.616;1.460;2022-10-17T17:50:29;10.80;;;2.97;;
68054;SDS011;54841;43.616;1.460;2022-10-17T17:52:55;7.97;;;2.95;;
68054;SDS011;54841;43.616;1.460;2022-10-17T17:55:20;10.57;;;2.65;;
68054;SDS011;54841;43.616;1.460;2022-10-17T17:57:45;9.43;;;3.13;;
68054;SDS011;54841;43.616;1.460;2022-10-17T18:00:11;7.88;;;2.50;;
68054;SDS011;54841;43.616;1.460;2022-10-17T18:02:37;6.18;;;2.50;;
68054;SDS011;54841;43.616;1.460;2022-10-17T18:05:02;9.77;;;2.60;;
68054;SDS011;54841;43.616;1.460;2022-10-17T18:07:28;15.68;;;3.47;;
68054;SDS011;54841;43.616;1.460;2022-10-17T18:09:54;6.57;;;2.45;;
68054;SDS011;54841;43.616;1.460;2022-10-17T18:12:21;11.75;;;2.78;;
68054;SDS011;54841;43.616;1.460;2022-10-17T18:14:46;11.20;;;2.92;;
68054;SDS011;54841;43.616;1.460;2022-10-17T18:17:12;11.00;;;2.25;;
68054;SDS011;54841;43.616;1.460;2022-10-17T18:19:37;9.15;;;2.65;;
68054;SDS011;54841;43.616;1.460;2022-10-17T18:22:03;10.68;;;3.72;;
68054;SDS011;54841;43.616;1.460;2022-10-17T18:24:28;8.80;;;2.45;;
68054;SDS011;54841;43.616;1.460;2022-10-17T18:26:53;9.20;;;2.78;;
68054;SDS011;54841;43.616;1.460;2022-10-17T18:29:23;11.73;;;3.15;;
68054;SDS011;54841;43.616;1.460;2022-10-17T18:31:49;8.98;;;2.88;;
68054;SDS011;54841;43.616;1.460;2022-10-17T18:34:15;8.85;;;2.70;;
68054;SDS011;54841;43.616;1.460;2022-10-17T18:36:40;10.60;;;2.88;;
68054;SDS011;54841;43.616;1.460;2022-10-17T18:39:05;8.70;;;3.30;;
68054;SDS011;54841;43.616;1.460;2022-10-17T18:41:31;12.32;;;4.00;;
68054;SDS011;54841;43.616;1.460;2022-10-17T18:43:57;12.02;;;2.88;;
68054;SDS011;54841;43.616;1.460;2022-10-17T18:46:23;11.10;;;3.50;;
68054;SDS011;54841;43.616;1.460;2022-10-17T18:48:51;11.10;;;4.05;;
68054;SDS011;54841;43.616;1.460;2022-10-17T18:51:19;12.10;;;3.38;;
68054;SDS011;54841;43.616;1.460;2022-10-17T18:53:46;10.23;;;3.10;;
68054;SDS011;54841;43.616;1.460;2022-10-17T18:56:13;11.57;;;3.35;;
68054;SDS011;54841;43.616;1.460;2022-10-17T18:58:39;11.05;;;3.05;;
68054;SDS011;54841;43.616;1.460;2022-10-17T19:01:09;12.73;;;3.58;;
68054;SDS011;54841;43.616;1.460;2022-10-17T19:03:36;13.27;;;3.58;;
68054;SDS011;54841;43.616;1.460;2022-10-17T19:06:02;13.23;;;3.10;;
68054;SDS011;54841;43.616;1.460;2022-10-17T19:08:36;13.95;;;3.88;;
68054;SDS011;54841;43.616;1.460;2022-10-17T19:13:31;11.68;;;3.33;;
68054;SDS011;54841;43.616;1.460;2022-10-17T19:15:56;9.63;;;3.28;;
68054;SDS011;54841;43.616;1.460;2022-10-17T19:18:22;9.02;;;2.83;;
68054;SDS011;54841;43.616;1.460;2022-10-17T19:20:47;13.48;;;3.40;;
68054;SDS011;54841;43.616;1.460;2022-10-17T19:23:15;11.15;;;3.08;;
68054;SDS011;54841;43.616;1.460;2022-10-17T19:25:40;9.35;;;3.10;;
68054;SDS011;54841;43.616;1.460;2022-10-17T19:28:06;14.32;;;3.72;;
68054;SDS011;54841;43.616;1.460;2022-10-17T19:30:31;12.00;;;3.22;;
68054;SDS011;54841;43.616;1.460;2022-10-17T19:32:56;16.00;;;3.60;;
68054;SDS011;54841;43.616;1.460;2022-10-17T19:35:22;14.45;;;3.45;;
68054;SDS011;54841;43.616;1.460;2022-10-17T19:37:47;11.00;;;2.90;;
68054;SDS011;54841;43.616;1.460;2022-10-17T19:40:13;14.60;;;3.17;;
68054;SDS011;54841;43.616;1.460;2022-10-17T19:42:38;14.13;;;3.42;;
68054;SDS011;54841;43.616;1.460;2022-10-17T19:45:05;11.55;;;3.10;;
68054;SDS011;54841;43.616;1.460;2022-10-17T19:47:33;15.15;;;3.20;;
68054;SDS011;54841;43.616;1.460;2022-10-17T19:49:58;11.93;;;3.55;;
68054;SDS011;54841;43.616;1.460;2022-10-17T19:52:24;15.63;;;3.78;;
68054;SDS011;54841;43.616;1.460;2022-10-17T19:54:49;12.80;;;3.80;;
68054;SDS011;54841;43.616;1.460;2022-10-17T19:57:15;11.13;;;3.63;;
68054;SDS011;54841;43.616;1.460;2022-10-17T19:59:40;9.80;;;3.10;;
68054;SDS011;54841;43.616;1.460;2022-10-17T20:02:06;12.02;;;3.88;;
68054;SDS011;54841;43.616;1.460;2022-10-17T20:04:31;14.45;;;4.00;;
68054;SDS011;54841;43.616;1.460;2022-10-17T20:06:56;12.77;;;3.42;;
68054;SDS011;54841;43.616;1.460;2022-10-17T20:09:24;13.35;;;4.13;;
68054;SDS011;54841;43.616;1.460;2022-10-17T20:11:50;10.80;;;3.33;;
68054;SDS011;54841;43.616;1.460;2022-10-17T20:14:15;10.90;;;3.20;;
68054;SDS011;54841;43.616;1.460;2022-10-17T20:16:41;12.75;;;3.38;;
68054;SDS011;54841;43.616;1.460;2022-10-17T20:19:10;12.63;;;3.92;;
68054;SDS011;54841;43.616;1.460;2022-10-17T20:21:36;11.43;;;2.95;;
68054;SDS011;54841;43.616;1.460;2022-10-17T20:24:04;9.70;;;3.47;;
68054;SDS011;54841;43.616;1.460;2022-10-17T20:26:31;14.32;;;4.13;;
68054;SDS011;54841;43.616;1.460;2022-10-17T20:28:58;10.60;;;3.35;;
68054;SDS011;54841;43.616;1.460;2022-10-17T20:31:25;11.07;;;3.30;;
68054;SDS011;54841;43.616;1.460;2022-10-17T20:33:54;15.43;;;3.50;;
68054;SDS011;54841;43.616;1.460;2022-10-17T20:36:20;10.82;;;3.40;;
68054;SDS011;54841;43.616;1.460;2022-10-17T20:38:50;15.52;;;3.65;;
68054;SDS011;54841;43.616;1.460;2022-10-17T20:41:20;17.08;;;5.13;;
68054;SDS011;54841;43.616;1.460;2022-10-17T20:43:48;13.52;;;3.85;;
68054;SDS011;54841;43.616;1.460;2022-10-17T20:46:15;15.10;;;3.83;;
68054;SDS011;54841;43.616;1.460;2022-10-17T20:48:40;12.55;;;4.80;;
68054;SDS011;54841;43.616;1.460;2022-10-17T20:51:09;11.57;;;3.50;;
68054;SDS011;54841;43.616;1.460;2022-10-17T20:53:35;12.85;;;4.38;;
68054;SDS011;54841;43.616;1.460;2022-10-17T20:56:04;17.00;;;5.55;;
68054;SDS011;54841;43.616;1.460;2022-10-17T20:58:41;13.68;;;3.67;;
68054;SDS011;54841;43.616;1.460;2022-10-17T21:01:07;15.38;;;3.97;;
68054;SDS011;54841;43.616;1.460;2022-10-17T21:03:34;16.50;;;4.82;;
68054;SDS011;54841;43.616;1.460;2022-10-17T21:06:03;17.08;;;4.20;;
68054;SDS011;54841;43.616;1.460;2022-10-17T21:08:28;17.38;;;4.35;;
68054;SDS011;54841;43.616;1.460;2022-10-17T21:11:04;14.65;;;4.63;;
68054;SDS011;54841;43.616;1.460;2022-10-17T21:13:33;14.45;;;5.00;;
68054;SDS011;54841;43.616;1.460;2022-10-17T21:16:05;13.85;;;4.35;;
68054;SDS011;54841;43.616;1.460;2022-10-17T21:18:32;15.55;;;4.95;;
68054;SDS011;54841;43.616;1.460;2022-10-17T21:21:14;10.85;;;4.25;;
68054;SDS011;54841;43.616;1.460;2022-10-17T21:23:41;18.90;;;5.38;;
68054;SDS011;54841;43.616;1.460;2022-10-17T21:26:09;17.42;;;4.13;;
68054;SDS011;54841;43.616;1.460;2022-10-17T21:28:36;15.93;;;4.65;;
68054;SDS011;54841;43.616;1.460;2022-10-17T21:31:06;14.50;;;4.18;;
68054;SDS011;54841;43.616;1.460;2022-10-17T21:33:40;19.63;;;5.55;;
68054;SDS011;54841;43.616;1.460;2022-10-17T21:36:07;20.08;;;4.45;;
68054;SDS011;54841;43.616;1.460;2022-10-17T21:38:34;16.77;;;4.93;;
68054;SDS011;54841;43.616;1.460;2022-10-17T21:41:01;16.02;;;5.25;;
68054;SDS011;54841;43.616;1.460;2022-10-17T21:43:27;13.73;;;4.38;;
68054;SDS011;54841;43.616;1.460;2022-10-17T21:45:53;17.27;;;5.57;;
68054;SDS011;54841;43.616;1.460;2022-10-17T21:48:18;15.80;;;5.20;;
68054;SDS011;54841;43.616;1.460;2022-10-17T21:50:43;22.05;;;4.95;;
68054;SDS011;54841;43.616;1.460;2022-10-17T21:53:09;17.52;;;5.30;;
68054;SDS011;54841;43.616;1.460;2022-10-17T21:55:35;13.32;;;4.78;;
68054;SDS011;54841;43.616;1.460;2022-10-17T21:58:01;17.45;;;5.35;;
68054;SDS011;54841;43.616;1.460;2022-10-17T22:00:27;19.10;;;5.20;;
68054;SDS011;54841;43.616;1.460;2022-10-17T22:02:52;13.02;;;4.90;;
68054;SDS011;54841;43.616;1.460;2022-10-17T22:05:18;15.23;;;4.70;;
68054;SDS011;54841;43.616;1.460;2022-10-17T22:07:43;15.52;;;5.47;;
68054;SDS011;54841;43.616;1.460;2022-10-17T22:10:09;16.80;;;5.57;;
68054;SDS011;54841;43.616;1.460;2022-10-17T22:12:34;15.65;;;6.13;;
68054;SDS011;54841;43.616;1.460;2022-10-17T22:15:00;15.45;;;5.05;;
68054;SDS011;54841;43.616;1.460;2022-10-17T22:17:25;15.23;;;5.32;;
68054;SDS011;54841;43.616;1.460;2022-10-17T22:19:50;17.73;;;5.60;;
68054;SDS011;54841;43.616;1.460;2022-10-17T22:22:16;17.98;;;5.75;;
68054;SDS011;54841;43.616;1.460;2022-10-17T22:24:41;13.93;;;6.05;;
68054;SDS011;54841;43.616;1.460;2022-10-17T22:27:07;15.05;;;5.25;;
68054;SDS011;54841;43.616;1.460;2022-10-17T22:29:34;18.23;;;5.78;;
68054;SDS011;54841;43.616;1.460;2022-10-17T22:32:00;18.75;;;5.72;;
68054;SDS011;54841;43.616;1.460;2022-10-17T22:34:25;19.80;;;6.88;;
68054;SDS011;54841;43.616;1.460;2022-10-17T22:36:51;16.95;;;6.57;;
68054;SDS011;54841;43.616;1.460;2022-10-17T22:39:16;19.63;;;6.35;;
68054;SDS011;54841;43.616;1.460;2022-10-17T22:41:42;16.15;;;5.75;;
68054;SDS011;54841;43.616;1.460;2022-10-17T22:44:08;18.73;;;5.78;;
68054;SDS011;54841;43.616;1.460;2022-10-17T22:46:33;16.77;;;6.28;;
68054;SDS011;54841;43.616;1.460;2022-10-17T22:48:58;18.95;;;5.55;;
68054;SDS011;54841;43.616;1.460;2022-10-17T22:51:24;19.60;;;6.30;;
68054;SDS011;54841;43.616;1.460;2022-10-17T22:53:49;19.00;;;5.55;;
68054;SDS011;54841;43.616;1.460;2022-10-17T22:56:16;15.77;;;5.88;;
68054;SDS011;54841;43.616;1.460;2022-10-17T22:58:43;22.40;;;6.10;;
68054;SDS011;54841;43.616;1.460;2022-10-17T23:01:11;18.88;;;6.68;;
68054;SDS011;54841;43.616;1.460;2022-10-17T23:03:38;21.70;;;6.15;;
68054;SDS011;54841;43.616;1.460;2022-10-17T23:06:04;15.98;;;5.63;;
68054;SDS011;54841;43.616;1.460;2022-10-17T23:08:30;21.17;;;6.97;;
68054;SDS011;54841;43.616;1.460;2022-10-17T23:10:56;22.15;;;7.13;;
68054;SDS011;54841;43.616;1.460;2022-10-17T23:13:21;17.73;;;6.18;;
68054;SDS011;54841;43.616;1.460;2022-10-17T23:15:53;19.38;;;5.82;;
68054;SDS011;54841;43.616;1.460;2022-10-17T23:18:20;19.60;;;6.30;;
68054;SDS011;54841;43.616;1.460;2022-10-17T23:20:46;18.95;;;6.95;;
68054;SDS011;54841;43.616;1.460;2022-10-17T23:23:12;17.80;;;5.53;;
68054;SDS011;54841;43.616;1.460;2022-10-17T23:25:38;11.98;;;5.28;;
68054;SDS011;54841;43.616;1.460;2022-10-17T23:28:04;17.70;;;5.75;;
68054;SDS011;54841;43.616;1.460;2022-10-17T23:30:32;20.83;;;5.78;;
68054;SDS011;54841;43.616;1.460;2022-10-17T23:32:57;14.25;;;5.47;;
68054;SDS011;54841;43.616;1.460;2022-10-17T23:35:23;16.75;;;5.68;;
68054;SDS011;54841;43.616;1.460;2022-10-17T23:37:48;20.90;;;5.60;;
68054;SDS011;54841;43.616;1.460;2022-10-17T23:40:14;16.38;;;5.57;;
68054;SDS011;54841;43.616;1.460;2022-10-17T23:42:39;18.17;;;5.85;;
68054;SDS011;54841;43.616;1.460;2022-10-17T23:45:05;23.20;;;6.15;;
68054;SDS011;54841;43.616;1.460;2022-10-17T23:47:31;21.05;;;5.75;;